< Typhoon 195719 1957 Season Typhoon 195721 >
Typhoon 195720 (KIT)
General InformationTrack Information on Google Maps || Disaster Info.ResourceGoogle EarthGE AnimationAtom FeedGeoJSON
Detalied Best Track (Time Zone = UTC)
Year Month Day Hour Lat. Long. Pressure (hPa) Wind (kt) Class Image Chart
1957 11 4 18 10.6 160.6 1004 0 2 -- Chart
1957 11 5 00 10.5 160.0 1002 0 2 -- Chart
1957 11 5 06 10.2 158.1 1000 0 2 -- Chart
1957 11 5 12 10.0 157.0 1000 0 2 -- Chart
1957 11 5 18 10.0 156.0 1000 0 2 -- Chart
1957 11 6 00 10.0 155.3 1000 0 2 -- Chart
1957 11 6 06 10.0 154.7 1000 0 2 -- Chart
1957 11 6 12 10.0 154.0 1000 0 2 -- Chart
1957 11 6 18 10.0 153.0 1000 0 2 -- Chart
1957 11 7 00 9.3 151.9 1000 0 2 -- Chart
1957 11 7 06 9.1 150.4 1000 0 2 -- Chart
1957 11 7 12 9.2 148.4 1000 0 2 -- Chart
1957 11 7 18 9.4 146.4 1000 0 2 -- Chart
1957 11 8 00 10.6 144.1 1000 0 9 -- Chart
1957 11 8 06 11.5 142.0 985 0 9 -- Chart
1957 11 8 12 12.3 140.0 980 0 9 -- Chart
1957 11 8 18 12.8 138.2 970 0 9 -- Chart
1957 11 9 00 13.2 136.3 965 0 9 -- Chart
1957 11 9 06 13.5 134.7 955 0 9 -- Chart
1957 11 9 12 13.7 133.0 950 0 9 -- Chart
1957 11 9 18 13.9 131.4 950 0 9 -- Chart
1957 11 10 00 13.8 129.8 945 0 9 -- Chart
1957 11 10 06 14.1 128.9 940 0 9 -- Chart
1957 11 10 12 14.2 126.9 915 0 9 -- Chart
1957 11 10 18 14.5 125.6 920 0 9 -- Chart
1957 11 11 00 14.6 124.5 920 0 9 -- Chart
1957 11 11 06 14.8 123.2 910 0 9 -- Chart
1957 11 11 12 15.2 122.5 925 0 9 -- Chart
1957 11 11 18 15.5 121.8 940 0 9 -- Chart
1957 11 12 00 15.8 121.0 950 0 9 -- Chart
1957 11 12 06 16.5 120.9 965 0 9 -- Chart
1957 11 12 12 17.0 121.1 980 0 9 -- Chart
1957 11 12 18 17.7 121.5 990 0 9 -- Chart
1957 11 13 00 18.1 122.2 995 0 9 -- Chart
1957 11 13 06 18.9 122.5 995 0 9 -- Chart
1957 11 13 12 19.2 122.7 995 0 9 -- Chart
1957 11 13 18 19.4 122.9 995 0 9 -- Chart
1957 11 14 00 19.6 123.3 1000 0 9 -- Chart
1957 11 14 06 19.7 123.3 1002 0 9 -- Chart
1957 11 14 12 20.1 123.2 1000 0 9 -- Chart
1957 11 14 18 20.5 123.0 1000 0 9 -- Chart
1957 11 15 00 21.0 122.8 1002 0 9 -- Chart
1957 11 15 06 21.6 122.4 1000 0 9 -- Chart
1957 11 15 12 22.5 122.6 1002 0 9 -- Chart
1957 11 15 18 23.3 123.6 1002 0 9 -- Chart
1957 11 16 00 23.5 124.0 1002 0 9 -- Chart
1957 11 16 06 24.4 126.0 1002 0 2 -- Chart
1957 11 16 12 25.0 127.0 1002 0 2 -- Chart
1957 11 16 18 25.8 128.2 1002 0 2 -- Chart
1957 11 17 00 27.5 131.1 1004 0 6 -- Chart
1957 11 17 06 29.0 134.0 1002 0 6 -- Chart
1957 11 17 12 30.5 137.0 1004 0 6 -- Chart
1957 11 17 18 32.0 140.0 1004 0 6 -- Chart
1957 11 18 00 32.6 141.5 1006 0 6 -- Chart
Japan Meteorological Agency Best Track Data | Correction Date : 1989-06-01
< Typhoon 195719 1957 Season Typhoon 195721 >

Help